Time;durP1;ratioP1;P1;durP2;ratioP2;P2;SDS_P1;SDS_P2;PMS_P1;PMS_P2;Temp;Humidity;BMP_temperature;BMP_pressure;BME280_temperature;BME280_humidity;BME280_pressure;Samples;Min_cycle;Max_cycle;Signal;HPM_P1;HPM_P2
2023/02/06 00:00:47;;;;;;;180.20;77.30;;;;;;;-6.01;100.00;100108.92;106326;1251;61313;-76
2023/02/06 00:03:33;;;;;;;174.00;79.40;;;;;;;-5.96;100.00;100115.04;106293;1256;61730;-78
2023/02/06 00:05:59;;;;;;;176.90;72.30;;;;;;;-5.92;100.00;100121.55;106309;1251;61349;-78
2023/02/06 00:08:26;;;;;;;163.50;68.90;;;;;;;-5.87;100.00;100121.50;106312;1256;61358;-76
2023/02/06 00:10:53;;;;;;;168.30;69.70;;;;;;;-5.85;100.00;100114.42;106319;1251;61213;-76
2023/02/06 00:13:19;;;;;;;158.40;68.20;;;;;;;-5.90;100.00;100115.77;106278;1251;61230;-75
2023/02/06 00:15:46;;;;;;;172.50;70.70;;;;;;;-5.93;100.00;100114.98;106340;1251;61327;-77
2023/02/06 00:18:12;;;;;;;165.80;71.20;;;;;;;-5.91;100.00;100106.02;106273;1251;61358;-76
2023/02/06 00:20:38;;;;;;;149.80;63.70;;;;;;;-5.99;100.00;100109.80;106409;1251;61323;-75
2023/02/06 00:23:05;;;;;;;155.40;60.80;;;;;;;-6.04;100.00;100108.80;106299;1257;61390;-78
2023/02/06 00:25:31;;;;;;;141.10;58.40;;;;;;;-6.08;100.00;100098.42;106326;1251;61327;-78
2023/02/06 00:27:58;;;;;;;147.20;62.60;;;;;;;-6.13;100.00;100102.11;106253;1255;61249;-78
2023/02/06 00:30:24;;;;;;;148.80;62.50;;;;;;;-6.11;100.00;100108.08;106320;1251;61330;-76
2023/02/06 00:32:51;;;;;;;160.90;63.20;;;;;;;-6.14;100.00;100098.16;106288;1253;61389;-75
2023/02/06 00:35:17;;;;;;;147.90;62.60;;;;;;;-6.10;100.00;100101.22;106309;1251;61339;-77
2023/02/06 00:37:43;;;;;;;145.20;60.30;;;;;;;-6.12;100.00;100100.27;106216;1254;61358;-77
2023/02/06 00:40:10;;;;;;;153.00;68.50;;;;;;;-6.14;100.00;100097.27;106342;1251;61268;-78
2023/02/06 00:42:37;;;;;;;168.40;71.70;;;;;;;-6.18;100.00;100100.82;106275;1251;61458;-78
2023/02/06 00:45:04;;;;;;;165.90;72.60;;;;;;;-6.21;100.00;100098.72;106471;1257;61253;-75
2023/02/06 00:47:30;;;;;;;163.60;64.40;;;;;;;-6.23;100.00;100089.39;106330;1255;61240;-78
2023/02/06 00:49:56;;;;;;;150.70;71.70;;;;;;;-6.25;100.00;100083.16;106204;1254;61288;-78
2023/02/06 00:52:23;;;;;;;167.20;65.90;;;;;;;-6.24;100.00;100085.96;106347;1253;61370;-77
2023/02/06 00:54:49;;;;;;;144.80;62.00;;;;;;;-6.22;100.00;100087.09;106304;1251;61458;-78
2023/02/06 00:57:16;;;;;;;137.50;57.80;;;;;;;-6.21;100.00;100092.27;106324;1255;61378;-77
2023/02/06 00:59:42;;;;;;;145.50;64.90;;;;;;;-6.23;100.00;100098.89;106253;1255;61795;-75
2023/02/06 01:02:09;;;;;;;135.60;61.50;;;;;;;-6.24;100.00;100096.66;106288;1251;61237;-77
2023/02/06 01:04:35;;;;;;;140.10;62.10;;;;;;;-6.21;100.00;100092.80;106309;1254;61339;-76
2023/02/06 01:07:02;;;;;;;155.40;65.80;;;;;;;-6.19;100.00;100089.10;106276;1251;61039;-78
2023/02/06 01:09:28;;;;;;;143.70;63.60;;;;;;;-6.18;100.00;100087.74;106324;1257;61457;-76
2023/02/06 01:11:55;;;;;;;145.40;61.80;;;;;;;-6.16;100.00;100091.10;106183;1252;61471;-77
2023/02/06 01:14:21;;;;;;;142.50;60.00;;;;;;;-6.17;100.00;100091.00;106342;1251;61755;-77
2023/02/06 01:16:47;;;;;;;159.40;71.20;;;;;;;-6.17;100.00;100088.55;106335;1254;61237;-78
2023/02/06 01:19:14;;;;;;;154.40;65.90;;;;;;;-6.16;100.00;100088.82;106326;1251;61701;-78
2023/02/06 01:21:40;;;;;;;147.20;66.00;;;;;;;-6.14;100.00;100083.73;106248;1251;61287;-76
2023/02/06 01:24:07;;;;;;;170.10;72.00;;;;;;;-6.11;100.00;100072.77;106370;1251;61244;-78
2023/02/06 01:26:33;;;;;;;165.00;70.80;;;;;;;-6.09;100.00;100070.52;106328;1256;61308;-76
2023/02/06 01:29:00;;;;;;;156.40;70.40;;;;;;;-6.15;100.00;100073.45;106289;1251;62354;-76
2023/02/06 01:31:27;;;;;;;142.90;60.60;;;;;;;-6.19;100.00;100071.48;106280;1251;61327;-77
2023/02/06 01:33:55;;;;;;;136.70;59.00;;;;;;;-6.19;100.00;100065.11;106350;1251;61240;-76
2023/02/06 01:36:21;;;;;;;137.30;60.50;;;;;;;-6.21;100.00;100053.38;106262;1253;72538;-76
2023/02/06 01:38:48;;;;;;;149.80;66.50;;;;;;;-6.24;100.00;100055.51;106230;1253;61180;-78
2023/02/06 01:41:16;;;;;;;142.10;58.90;;;;;;;-6.26;100.00;100060.46;106370;1251;61358;-76
2023/02/06 01:43:44;;;;;;;143.60;63.10;;;;;;;-6.28;100.00;100054.02;106425;1251;73402;-78
2023/02/06 01:46:11;;;;;;;150.10;67.20;;;;;;;-6.30;100.00;100052.83;106311;1251;71118;-76
2023/02/06 01:48:40;;;;;;;143.00;64.30;;;;;;;-6.31;100.00;100050.30;106299;1251;61346;-78
2023/02/06 01:51:09;;;;;;;138.20;63.30;;;;;;;-6.30;100.00;100048.82;106444;1251;61199;-76
2023/02/06 01:53:35;;;;;;;141.20;56.20;;;;;;;-6.30;100.00;100040.90;106161;1256;61269;-77
2023/02/06 01:56:03;;;;;;;132.40;61.20;;;;;;;-6.36;100.00;100034.99;106343;1251;63404;-77
2023/02/06 01:58:35;;;;;;;141.10;60.10;;;;;;;-6.41;100.00;100040.15;106449;1257;70088;-78
2023/02/06 02:01:02;;;;;;;135.30;58.70;;;;;;;-6.43;100.00;100041.89;106430;1251;71417;-77
2023/02/06 02:03:29;;;;;;;144.00;61.00;;;;;;;-6.42;100.00;100037.75;106146;1256;61825;-76
2023/02/06 02:05:58;;;;;;;132.20;56.80;;;;;;;-6.44;100.00;100029.83;106390;1252;61215;-76
2023/02/06 02:08:29;;;;;;;137.50;60.00;;;;;;;-6.42;100.00;100033.06;106218;1256;73467;-79
2023/02/06 02:10:55;;;;;;;139.60;57.10;;;;;;;-6.41;100.00;100036.14;106391;1251;70144;-77
2023/02/06 02:13:22;;;;;;;134.30;59.40;;;;;;;-6.38;100.00;100036.08;106322;1251;61191;-79
2023/02/06 02:15:57;;;;;;;135.90;57.50;;;;;;;-6.35;100.00;100035.10;106317;1251;61269;-78
2023/02/06 02:18:27;;;;;;;140.00;60.20;;;;;;;-6.38;100.00;100037.30;106287;1251;61257;-79
2023/02/06 02:21:05;;;;;;;131.70;57.60;;;;;;;-6.37;100.00;100034.71;106300;1257;74539;-79
2023/02/06 02:23:44;;;;;;;;;;;;;;;-6.33;100.00;100034.96;106303;1256;69892;-78
2023/02/06 02:26:23;;;;;;;132.90;56.70;;;;;;;-6.31;100.00;100032.45;106178;1257;72554;-79
2023/02/06 02:28:49;;;;;;;;;;;;;;;-6.27;100.00;100028.81;106361;1251;61322;-77
2023/02/06 02:31:44;;;;;;;122.60;50.40;;;;;;;-6.26;100.00;100029.77;106361;1251;61327;-79
2023/02/06 02:34:48;;;;;;;133.60;59.80;;;;;;;-6.27;100.00;100026.90;106297;1251;66029;-76
2023/02/06 02:37:27;;;;;;;123.20;52.00;;;;;;;-6.26;100.00;100030.69;106263;1254;62378;-79
2023/02/06 02:40:18;;;;;;;125.70;54.40;;;;;;;-6.27;100.00;100038.46;106325;1251;72554;-77
2023/02/06 02:43:06;;;;;;;145.20;60.80;;;;;;;-6.28;100.00;100029.98;106302;1254;61199;-77
2023/02/06 02:45:43;;;;;;;163.30;67.90;;;;;;;-6.33;100.00;100021.44;106337;1257;61340;-78
2023/02/06 02:48:14;;;;;;;213.80;85.00;;;;;;;-6.40;100.00;100018.08;106323;1257;74489;-77
2023/02/06 02:50:40;;;;;;;211.00;84.90;;;;;;;-6.45;100.00;100014.47;106388;1257;70002;-76
2023/02/06 02:53:07;;;;;;;144.70;64.80;;;;;;;-6.45;100.00;100011.69;106045;1254;61249;-78
2023/02/06 02:55:33;;;;;;;119.00;59.20;;;;;;;-6.43;100.00;100011.13;106314;1251;62272;-76
2023/02/06 02:58:06;;;;;;;164.40;66.20;;;;;;;-6.40;100.00;100008.77;106285;1251;61426;-79
2023/02/06 03:00:34;;;;;;;179.30;76.00;;;;;;;-6.41;100.00;100006.20;106198;1251;73317;-76
2023/02/06 03:03:01;;;;;;;151.20;63.90;;;;;;;-6.45;100.00;99994.99;106307;1251;72567;-78
2023/02/06 03:05:27;;;;;;;133.60;60.00;;;;;;;-6.53;100.00;99988.01;106074;1251;61375;-78
2023/02/06 03:08:17;;;;;;;132.40;58.50;;;;;;;-6.57;100.00;99989.18;106018;1257;61781;-78
2023/02/06 03:11:02;;;;;;;133.20;59.70;;;;;;;-6.59;100.00;99987.44;106311;1253;61177;-79
2023/02/06 03:13:31;;;;;;;117.20;51.60;;;;;;;-6.63;100.00;99999.02;106288;1254;74461;-78
2023/02/06 03:16:22;;;;;;;131.50;53.10;;;;;;;-6.63;100.00;99994.62;106277;1252;71142;-78
2023/02/06 03:18:59;;;;;;;130.30;57.10;;;;;;;-6.61;100.00;99997.94;106277;1256;63901;-79
2023/02/06 03:21:26;;;;;;;125.80;53.10;;;;;;;-6.60;100.00;99996.80;106076;1254;61237;-79
2023/02/06 03:23:54;;;;;;;107.30;50.20;;;;;;;-6.59;100.00;99990.94;105941;1256;62431;-78
2023/02/06 03:26:22;;;;;;;121.40;50.50;;;;;;;-6.60;100.00;99991.25;106076;1254;74511;-79
2023/02/06 03:28:51;;;;;;;112.10;52.90;;;;;;;-6.62;100.00;99994.52;106323;1252;70842;-77
2023/02/06 03:31:26;;;;;;;115.60;51.70;;;;;;;-6.65;100.00;99996.16;106339;1254;71458;-78
2023/02/06 03:34:00;;;;;;;117.30;52.70;;;;;;;-6.67;100.00;99988.23;106338;1253;61238;-77
2023/02/06 03:36:26;;;;;;;111.90;51.20;;;;;;;-6.70;100.00;99986.04;105990;1252;61314;-77
2023/02/06 03:38:53;;;;;;;129.60;57.80;;;;;;;-6.75;100.00;99987.14;106246;1255;74532;-77
2023/02/06 03:41:23;;;;;;;120.20;54.30;;;;;;;-6.75;100.00;99989.98;106183;1254;61298;-78
2023/02/06 03:43:49;;;;;;;126.80;55.50;;;;;;;-6.77;100.00;99989.42;106358;1254;71447;-76
2023/02/06 03:46:16;;;;;;;128.40;61.00;;;;;;;-6.80;100.00;99987.91;106070;1251;61243;-79
2023/02/06 03:48:47;;;;;;;124.60;57.80;;;;;;;-6.79;100.00;99995.90;106157;1252;60263;-76
2023/02/06 03:51:18;;;;;;;137.40;63.90;;;;;;;-6.78;100.00;100007.05;106361;1251;73448;-79
2023/02/06 03:53:45;;;;;;;136.60;60.00;;;;;;;-6.73;100.00;100013.02;106159;1256;70525;-79
2023/02/06 03:56:33;;;;;;;149.20;63.20;;;;;;;-6.67;100.00;100012.52;106313;1251;71545;-76
2023/02/06 03:58:59;;;;;;;140.10;64.90;;;;;;;-6.62;100.00;100013.34;106108;1254;61330;-78
2023/02/06 04:01:26;;;;;;;139.50;62.00;;;;;;;-6.58;100.00;100019.00;106208;1255;139099;-78
2023/02/06 04:03:53;;;;;;;154.80;68.50;;;;;;;-6.58;100.00;100024.30;106109;1251;61257;-77
2023/02/06 04:06:19;;;;;;;137.10;60.10;;;;;;;-6.59;100.00;100017.30;106312;1254;70189;-76
2023/02/06 04:08:46;;;;;;;142.80;67.20;;;;;;;-6.61;100.00;100013.79;106126;1254;61312;-78
2023/02/06 04:11:12;;;;;;;137.90;59.60;;;;;;;-6.68;100.00;100015.58;106380;1251;61410;-76
2023/02/06 04:13:38;;;;;;;128.80;63.90;;;;;;;-6.69;100.00;100010.77;106326;1251;61327;-76
2023/02/06 04:16:05;;;;;;;143.90;64.00;;;;;;;-6.73;100.00;100004.23;106305;1255;61217;-76
2023/02/06 04:18:32;;;;;;;142.80;70.20;;;;;;;-6.73;100.00;100005.11;106315;1255;61312;-78
2023/02/06 04:21:05;;;;;;;146.80;67.70;;;;;;;-6.77;100.00;100001.91;106333;1252;61355;-79
2023/02/06 04:23:31;;;;;;;169.30;74.30;;;;;;;-6.76;100.00;99988.77;106323;1251;60228;-77
2023/02/06 04:25:58;;;;;;;163.80;77.50;;;;;;;-6.81;100.00;99986.39;106175;1254;61188;-77
2023/02/06 04:28:24;;;;;;;159.70;75.50;;;;;;;-6.85;100.00;99982.79;106304;1251;61352;-79
2023/02/06 04:30:50;;;;;;;163.30;74.60;;;;;;;-6.85;100.00;99979.45;106290;1251;61374;-79
2023/02/06 04:33:17;;;;;;;136.70;65.90;;;;;;;-6.83;100.00;99987.80;106296;1251;61406;-76
2023/02/06 04:35:43;;;;;;;151.30;68.90;;;;;;;-6.80;100.00;99991.08;106342;1251;61323;-76
2023/02/06 04:38:10;;;;;;;155.60;72.10;;;;;;;-6.76;100.00;99987.27;106322;1256;61320;-76
2023/02/06 04:40:36;;;;;;;154.30;70.10;;;;;;;-6.76;100.00;99986.55;106529;1256;61323;-78
2023/02/06 04:43:02;;;;;;;142.00;65.50;;;;;;;-6.77;100.00;99983.82;106279;1251;61419;-78
2023/02/06 04:45:29;;;;;;;145.90;63.90;;;;;;;-6.80;100.00;99983.19;106365;1251;61199;-77
2023/02/06 04:47:55;;;;;;;159.80;74.20;;;;;;;-6.84;100.00;99991.16;106288;1254;61246;-76
2023/02/06 04:50:21;;;;;;;162.50;74.70;;;;;;;-6.90;100.00;100002.70;106288;1256;61326;-76
2023/02/06 04:52:48;;;;;;;153.90;68.70;;;;;;;-6.91;100.00;100010.37;106324;1251;62407;-78
2023/02/06 04:55:14;;;;;;;152.70;63.60;;;;;;;-6.91;100.00;100010.36;106357;1257;61301;-76
2023/02/06 04:57:41;;;;;;;135.00;60.90;;;;;;;-6.88;100.00;100016.66;106155;1251;61320;-78
2023/02/06 05:00:09;;;;;;;134.50;59.20;;;;;;;-6.88;100.00;100016.67;106298;1252;61345;-77
2023/02/06 05:02:38;;;;;;;130.10;57.80;;;;;;;-6.88;100.00;100013.62;106423;1251;61291;-77
2023/02/06 05:05:05;;;;;;;117.10;54.30;;;;;;;-6.90;100.00;100012.07;106334;1251;72646;-80
2023/02/06 05:07:31;;;;;;;122.10;55.50;;;;;;;-6.93;100.00;100016.83;106455;1255;70015;-77
2023/02/06 05:09:58;;;;;;;121.40;52.10;;;;;;;-6.95;100.00;100019.52;106425;1251;61666;-80
2023/02/06 05:12:24;;;;;;;133.70;59.90;;;;;;;-6.96;100.00;100022.53;106281;1251;61997;-79
2023/02/06 05:14:50;;;;;;;120.60;53.20;;;;;;;-6.96;100.00;100028.70;106347;1251;61345;-77
2023/02/06 05:17:17;;;;;;;118.70;52.90;;;;;;;-6.95;100.00;100030.92;106420;1254;61217;-79
2023/02/06 05:19:43;;;;;;;110.60;49.20;;;;;;;-6.94;100.00;100029.23;106316;1251;61336;-77
2023/02/06 05:22:10;;;;;;;103.30;49.10;;;;;;;-6.92;100.00;100033.27;106284;1251;61255;-78
2023/02/06 05:24:36;;;;;;;104.50;48.80;;;;;;;-6.89;100.00;100031.51;106440;1255;61349;-77
2023/02/06 05:27:02;;;;;;;108.40;51.80;;;;;;;-6.88;100.00;100036.67;106328;1254;61155;-78
2023/02/06 05:29:29;;;;;;;132.30;57.20;;;;;;;-6.85;100.00;100037.96;106351;1256;61160;-77
2023/02/06 05:31:55;;;;;;;189.20;78.40;;;;;;;-6.87;100.00;100040.05;106342;1251;61828;-78
2023/02/06 05:34:22;;;;;;;169.90;75.40;;;;;;;-6.83;100.00;100041.58;106272;1251;61349;-75
2023/02/06 05:36:49;;;;;;;153.20;71.10;;;;;;;-6.81;100.00;100037.73;106288;1254;61320;-76
2023/02/06 05:39:15;;;;;;;149.80;65.20;;;;;;;-6.80;100.00;100037.49;106423;1256;61367;-78
2023/02/06 05:41:41;;;;;;;147.30;63.80;;;;;;;-6.79;100.00;100039.51;106333;1251;61225;-78
2023/02/06 05:44:09;;;;;;;124.90;53.20;;;;;;;-6.82;100.00;100037.29;106322;1251;61465;-77
2023/02/06 05:46:36;;;;;;;145.80;60.80;;;;;;;-6.83;100.00;100042.07;106464;1255;71412;-78
2023/02/06 05:49:03;;;;;;;161.10;77.80;;;;;;;-6.91;100.00;100043.24;106297;1251;61328;-76
2023/02/06 05:51:29;;;;;;;140.80;63.80;;;;;;;-6.92;100.00;100044.17;106377;1253;61249;-75
2023/02/06 05:53:56;;;;;;;143.40;63.10;;;;;;;-6.90;100.00;100042.46;106321;1251;62202;-77
2023/02/06 05:56:22;;;;;;;150.60;62.60;;;;;;;-6.94;100.00;100047.70;106277;1251;61083;-78
2023/02/06 05:58:48;;;;;;;161.70;63.90;;;;;;;-6.95;100.00;100044.96;106290;1251;61318;-77
2023/02/06 06:01:15;;;;;;;184.00;75.30;;;;;;;-6.93;100.00;100040.23;106251;1257;61281;-75
2023/02/06 06:03:41;;;;;;;186.20;76.30;;;;;;;-6.94;100.00;100040.17;106310;1251;61313;-77
2023/02/06 06:06:08;;;;;;;156.00;65.90;;;;;;;-6.96;100.00;100037.11;106457;1251;61342;-77
2023/02/06 06:08:34;;;;;;;118.80;56.90;;;;;;;-6.95;100.00;100042.18;106361;1257;61242;-78
2023/02/06 06:11:01;;;;;;;124.00;53.70;;;;;;;-6.94;100.00;100044.70;106319;1253;61262;-77
2023/02/06 06:13:28;;;;;;;131.20;55.70;;;;;;;-6.92;100.00;100041.41;106292;1251;61310;-78
2023/02/06 06:15:54;;;;;;;103.80;53.60;;;;;;;-6.92;100.00;100043.33;106316;1251;61323;-75
2023/02/06 06:18:20;;;;;;;121.70;55.50;;;;;;;-6.96;100.00;100041.71;106314;1251;61371;-77
2023/02/06 06:20:47;;;;;;;117.10;54.50;;;;;;;-7.00;100.00;100038.64;106540;1255;63448;-77
2023/02/06 06:23:13;;;;;;;123.00;53.10;;;;;;;-7.03;100.00;100039.09;106296;1251;61340;-75
2023/02/06 06:25:40;;;;;;;130.00;54.80;;;;;;;-7.02;100.00;100036.20;106318;1256;61285;-77
2023/02/06 06:28:06;;;;;;;118.20;48.90;;;;;;;-7.04;100.00;100033.01;106092;1251;61240;-80
2023/02/06 06:30:33;;;;;;;154.40;78.80;;;;;;;-7.00;100.00;100034.14;106322;1256;61359;-76
2023/02/06 06:32:59;;;;;;;167.90;69.40;;;;;;;-6.99;100.00;100034.73;106347;1251;61434;-76
2023/02/06 06:35:25;;;;;;;161.40;70.90;;;;;;;-6.97;100.00;100031.27;106369;1257;61265;-76
2023/02/06 06:37:52;;;;;;;165.30;74.30;;;;;;;-6.95;100.00;100031.27;106280;1251;61240;-76
2023/02/06 06:40:19;;;;;;;217.70;95.20;;;;;;;-6.95;100.00;100029.30;106335;1254;61356;-78
2023/02/06 06:42:45;;;;;;;164.60;76.00;;;;;;;-6.91;100.00;100029.88;106266;1252;61342;-76
2023/02/06 06:45:12;;;;;;;166.60;80.90;;;;;;;-6.88;100.00;100029.80;106297;1254;61356;-78
2023/02/06 06:47:38;;;;;;;159.20;70.50;;;;;;;-6.85;100.00;100031.49;106271;1254;61256;-76
2023/02/06 06:50:05;;;;;;;141.60;62.80;;;;;;;-6.81;100.00;100035.63;106289;1256;61202;-76
2023/02/06 06:52:31;;;;;;;178.30;72.80;;;;;;;-6.78;100.00;100036.23;106151;1251;61211;-78
2023/02/06 06:54:57;;;;;;;183.40;79.10;;;;;;;-6.79;100.00;100036.32;106292;1251;62211;-78
2023/02/06 06:57:24;;;;;;;172.70;73.20;;;;;;;-6.76;100.00;100038.06;106383;1251;61234;-79
2023/02/06 06:59:51;;;;;;;160.60;74.20;;;;;;;-6.81;100.00;100037.38;106325;1251;62406;-78
2023/02/06 07:02:17;;;;;;;148.90;70.50;;;;;;;-6.83;100.00;100033.98;106424;1256;61329;-78
2023/02/06 07:04:44;;;;;;;128.20;62.10;;;;;;;-6.85;100.00;100037.86;106286;1253;61335;-78
2023/02/06 07:07:10;;;;;;;144.00;64.50;;;;;;;-6.82;100.00;100035.85;106522;1251;61221;-78
2023/02/06 07:09:36;;;;;;;141.50;66.00;;;;;;;-6.83;100.00;100038.23;107557;1251;62407;-77
2023/02/06 07:12:03;;;;;;;144.80;65.60;;;;;;;-6.77;100.00;100037.80;106915;1251;61864;-77
2023/02/06 07:14:30;;;;;;;171.80;75.40;;;;;;;-6.75;100.00;100034.30;106327;1251;61241;-78
2023/02/06 07:16:56;;;;;;;162.70;75.60;;;;;;;-6.77;100.00;100037.36;106224;1251;61303;-79
2023/02/06 07:19:23;;;;;;;181.70;88.80;;;;;;;-6.72;100.00;100036.52;107354;1251;61237;-77
2023/02/06 07:21:49;;;;;;;179.30;88.60;;;;;;;-6.67;100.00;100032.42;107071;1251;63509;-79
2023/02/06 07:24:15;;;;;;;397.60;150.50;;;;;;;-6.67;100.00;100033.45;106394;1257;61261;-78
2023/02/06 07:26:42;;;;;;;168.10;80.40;;;;;;;-6.59;100.00;100033.70;106735;1255;61341;-79
2023/02/06 07:29:09;;;;;;;129.20;63.00;;;;;;;-6.53;100.00;100037.05;107028;1252;61319;-79
2023/02/06 07:31:35;;;;;;;124.60;57.70;;;;;;;-6.51;100.00;100034.80;108549;1251;59353;-77
2023/02/06 07:34:03;;;;;;;143.30;64.10;;;;;;;-6.50;100.00;100034.91;107233;1251;61416;-80
2023/02/06 07:36:29;;;;;;;174.60;80.90;;;;;;;-6.40;100.00;100037.77;107387;1254;61349;-77
2023/02/06 07:38:56;;;;;;;249.70;112.50;;;;;;;-6.34;100.00;100038.04;107933;1252;61221;-79
2023/02/06 07:41:22;;;;;;;194.00;91.30;;;;;;;-6.26;100.00;100041.44;109430;1251;59476;-77
2023/02/06 07:43:48;;;;;;;249.80;112.00;;;;;;;-6.17;100.00;100046.00;108002;1251;61348;-79
2023/02/06 07:46:15;;;;;;;254.20;121.20;;;;;;;-6.09;100.00;100046.33;106862;1254;61138;-79
2023/02/06 07:48:42;;;;;;;273.00;119.60;;;;;;;-6.05;100.00;100041.98;106417;1251;61221;-79
2023/02/06 07:51:08;;;;;;;386.00;163.80;;;;;;;-6.01;100.00;100033.37;109006;1254;61298;-79
2023/02/06 07:53:35;;;;;;;310.20;136.60;;;;;;;-5.94;100.00;100028.79;106700;1251;61407;-78
2023/02/06 07:56:07;;;;;;;191.40;85.80;;;;;;;-5.90;100.00;100027.77;106785;1251;61438;-79
2023/02/06 07:58:34;;;;;;;203.10;94.10;;;;;;;-5.80;100.00;100025.98;106624;1255;69922;-79
2023/02/06 08:01:04;;;;;;;210.80;90.90;;;;;;;-5.74;100.00;100029.04;108151;1252;59247;-79
2023/02/06 08:03:30;;;;;;;303.10;133.30;;;;;;;-5.68;100.00;100033.76;106604;1251;61327;-76
2023/02/06 08:05:57;;;;;;;353.50;148.80;;;;;;;-5.61;100.00;100036.41;106321;1257;61688;-76
2023/02/06 08:08:24;;;;;;;228.70;102.80;;;;;;;-5.63;100.00;100033.27;106131;1254;61368;-79
2023/02/06 08:10:51;;;;;;;186.40;82.90;;;;;;;-5.64;100.00;100035.77;106571;1256;69958;-79
2023/02/06 08:13:17;;;;;;;156.90;74.00;;;;;;;-5.69;100.00;100031.95;106787;1251;72511;-77
2023/02/06 08:15:44;;;;;;;177.60;88.30;;;;;;;-5.72;100.00;100030.23;107328;1251;61215;-79
2023/02/06 08:18:10;;;;;;;195.70;95.50;;;;;;;-5.69;100.00;100029.86;106421;1256;61555;-77
2023/02/06 08:20:36;;;;;;;194.90;98.80;;;;;;;-5.63;100.00;100029.92;108012;1251;60057;-76
2023/02/06 08:23:03;;;;;;;160.60;79.30;;;;;;;-5.59;100.00;100029.92;106368;1251;61215;-80
2023/02/06 08:25:29;;;;;;;142.30;72.80;;;;;;;-5.58;100.00;100030.66;106696;1256;61336;-76
2023/02/06 08:27:56;;;;;;;170.30;79.20;;;;;;;-5.55;100.00;100032.36;106479;1254;61311;-76
2023/02/06 08:30:22;;;;;;;170.70;81.20;;;;;;;-5.46;100.00;100035.48;108696;1251;61286;-79
2023/02/06 08:32:49;;;;;;;168.00;85.90;;;;;;;-5.34;100.00;100037.70;106686;1251;61246;-78
2023/02/06 08:35:15;;;;;;;167.60;85.90;;;;;;;-5.27;100.00;100035.83;106158;1254;61250;-76
2023/02/06 08:37:42;;;;;;;176.70;78.20;;;;;;;-5.19;100.00;100033.57;106354;1254;61339;-79
2023/02/06 08:40:09;;;;;;;178.10;79.80;;;;;;;-5.09;100.00;100036.21;107829;1253;61241;-76
2023/02/06 08:42:36;;;;;;;215.20;89.50;;;;;;;-4.97;100.00;100038.39;106616;1252;62247;-76
2023/02/06 08:45:02;;;;;;;472.70;183.30;;;;;;;-4.85;100.00;100033.41;106674;1251;61224;-76
2023/02/06 08:47:29;;;;;;;197.40;82.80;;;;;;;-4.74;100.00;100027.03;106416;1254;69902;-76
2023/02/06 08:49:56;;;;;;;170.90;80.80;;;;;;;-4.65;100.00;100029.95;108064;1251;71306;-76
2023/02/06 08:52:22;;;;;;;248.40;114.10;;;;;;;-4.67;100.00;100030.82;107114;1251;61327;-79
2023/02/06 08:54:50;;;;;;;294.60;126.70;;;;;;;-4.62;100.00;100031.45;106481;1252;61234;-79
2023/02/06 08:57:17;;;;;;;203.60;94.50;;;;;;;-4.53;100.00;100032.79;106373;1251;74364;-78
2023/02/06 08:59:44;;;;;;;167.80;70.80;;;;;;;-4.38;100.00;100025.45;107187;1251;61123;-76
2023/02/06 09:02:12;;;;;;;242.00;106.60;;;;;;;-4.31;100.00;100023.46;109396;1255;72515;-79
2023/02/06 09:04:38;;;;;;;147.10;68.70;;;;;;;-4.27;100.00;100024.45;109439;1253;58988;-79
2023/02/06 09:07:04;;;;;;;178.10;77.20;;;;;;;-4.24;100.00;100025.65;109005;1253;59507;-79
2023/02/06 09:09:31;;;;;;;112.90;54.60;;;;;;;-4.24;100.00;100026.14;108400;1251;61148;-77
2023/02/06 09:12:02;;;;;;;118.00;61.20;;;;;;;-4.21;100.00;100022.59;107552;1254;61310;-76
2023/02/06 09:14:28;;;;;;;115.60;55.50;;;;;;;-4.10;100.00;100022.33;106796;1252;71445;-78
2023/02/06 09:16:58;;;;;;;130.00;63.40;;;;;;;-4.07;100.00;100022.00;106323;1257;61134;-78
2023/02/06 09:19:24;;;;;;;126.10;64.80;;;;;;;-3.99;100.00;100012.81;107225;1251;61086;-77
2023/02/06 09:21:51;;;;;;;136.70;62.80;;;;;;;-3.96;100.00;100016.58;106936;1252;74250;-76
2023/02/06 09:24:18;;;;;;;127.10;59.90;;;;;;;-3.85;100.00;100015.77;106554;1256;69921;-76
2023/02/06 09:26:44;;;;;;;116.50;56.10;;;;;;;-3.84;100.00;100017.83;106358;1254;62426;-76
2023/02/06 09:29:11;;;;;;;104.80;55.00;;;;;;;-3.82;100.00;100019.23;107472;1251;61080;-77
2023/02/06 09:31:38;;;;;;;113.20;56.20;;;;;;;-3.72;100.00;100026.92;109395;1252;60019;-77
2023/02/06 09:34:05;;;;;;;116.90;56.90;;;;;;;-3.59;100.00;100030.17;108139;1253;74540;-79
2023/02/06 09:36:33;;;;;;;111.90;55.10;;;;;;;-3.49;99.89;100032.28;106553;1256;69903;-79
2023/02/06 09:39:00;;;;;;;82.60;44.40;;;;;;;-3.36;100.00;100034.02;106667;1253;72716;-79
2023/02/06 09:41:41;;;;;;;77.00;40.20;;;;;;;-3.18;100.00;100029.86;109230;1253;59458;-79
2023/02/06 09:44:13;;;;;;;80.30;42.00;;;;;;;-3.00;100.00;100030.18;109176;1251;58921;-75
2023/02/06 09:47:05;;;;;;;67.30;37.30;;;;;;;-2.77;100.00;100024.66;107528;1253;73193;-75
2023/02/06 09:49:38;;;;;;;65.70;33.70;;;;;;;-2.54;100.00;100020.48;106627;1251;72269;-77
2023/02/06 09:52:20;;;;;;;60.60;33.80;;;;;;;-2.42;100.00;100027.15;106460;1254;72513;-76
2023/02/06 09:55:13;;;;;;;67.00;33.40;;;;;;;-2.50;98.55;100032.89;106387;1251;62394;-76
2023/02/06 09:57:51;;;;;;;68.90;34.30;;;;;;;-2.52;99.54;100032.52;106450;1252;61165;-77
2023/02/06 10:00:40;;;;;;;93.30;50.80;;;;;;;-2.50;99.36;100029.66;108023;1254;73366;-79
2023/02/06 10:03:11;;;;;;;127.40;55.70;;;;;;;-2.51;98.91;100028.31;106691;1252;62297;-79
2023/02/06 10:05:56;;;;;;;76.80;38.30;;;;;;;-2.50;97.86;100034.84;106288;1254;72542;-77
2023/02/06 10:08:35;;;;;;;81.50;41.70;;;;;;;-2.49;99.54;100037.52;106596;1254;61260;-79
2023/02/06 10:11:08;;;;;;;66.30;36.80;;;;;;;-2.47;99.87;100035.54;108238;1254;59967;-79
2023/02/06 10:13:36;;;;;;;65.50;34.90;;;;;;;-2.57;97.07;100036.14;106947;1253;73421;-79
2023/02/06 10:16:10;;;;;;;66.30;33.00;;;;;;;-2.55;98.78;100030.86;106643;1256;71076;-77
2023/02/06 10:18:40;;;;;;;70.90;35.10;;;;;;;-2.60;97.29;100033.27;106580;1254;64371;-76
2023/02/06 10:21:16;;;;;;;62.50;33.80;;;;;;;-2.62;98.26;100036.05;107913;1253;61355;-77
2023/02/06 10:23:48;;;;;;;68.20;29.40;;;;;;;-2.55;100.00;100034.41;106577;1251;61147;-79
2023/02/06 10:26:16;;;;;;;481.00;412.80;;;;;;;-2.53;99.84;100031.35;107008;1252;73531;-76
2023/02/06 10:28:43;;;;;;;130.00;92.10;;;;;;;-2.56;98.74;100033.25;106629;1251;69977;-79
2023/02/06 10:31:27;;;;;;;114.80;63.90;;;;;;;-2.60;98.25;100031.52;108455;1251;72496;-77
2023/02/06 10:34:18;;;;;;;68.10;37.50;;;;;;;-2.63;97.80;100032.88;106328;1252;61366;-77
2023/02/06 10:36:48;;;;;;;61.20;33.40;;;;;;;-2.64;97.44;100034.02;106533;1256;62300;-79
2023/02/06 10:39:34;;;;;;;61.20;32.40;;;;;;;-2.60;99.12;100028.17;107361;1251;73858;-79
2023/02/06 10:42:16;;;;;;;63.70;30.60;;;;;;;-2.55;100.00;100024.33;107512;1254;69974;-79
2023/02/06 10:44:55;;;;;;;68.90;36.40;;;;;;;-2.52;99.92;100025.95;106409;1251;72625;-78
2023/02/06 10:47:40;;;;;;;60.50;32.70;;;;;;;-2.54;99.07;100024.73;107056;1251;61157;-79
2023/02/06 10:50:29;;;;;;;69.70;34.60;;;;;;;-2.49;99.23;100023.86;108133;1251;59058;-78
2023/02/06 10:52:58;;;;;;;74.10;34.60;;;;;;;-2.49;99.40;100019.45;106733;1257;65977;-76
2023/02/06 10:55:27;;;;;;;82.70;39.40;;;;;;;-2.59;96.37;100025.91;106984;1256;70966;-78
2023/02/06 10:58:18;;;;;;;54.50;26.20;;;;;;;-2.78;93.62;100027.17;106998;1253;71664;-77